Time;durP1;ratioP1;P1;durP2;ratioP2;P2;SDS_P1;SDS_P2;PMS_P1;PMS_P2;Temp;Humidity;BMP_temperature;BMP_pressure;BME280_temperature;BME280_humidity;BME280_pressure;Samples;Min_cycle;Max_cycle;Signal;HPM_P1;HPM_P2
2023/04/28 00:01:49;;;;;;;;;;;19.30;47.20;;;;;;5086182;28;42897;-79
2023/04/28 00:04:14;;;;;;;;;;;19.30;47.20;;;;;;5086213;27;42960;-79
2023/04/28 00:06:40;;;;;;;;;;;19.40;47.20;;;;;;5086374;28;42873;-80
2023/04/28 00:09:09;;;;;;;;;;;19.40;47.80;;;;;;5085613;28;42947;-79
2023/04/28 00:11:35;;;;;;;;;;;19.40;47.70;;;;;;5085542;27;42930;-79
2023/04/28 00:14:01;;;;;;;;;;;19.40;47.30;;;;;;5085985;28;42859;-79
2023/04/28 00:16:26;;;;;;;;;;;19.40;47.10;;;;;;5085919;28;42809;-80
2023/04/28 00:18:52;;;;;;;;;;;19.50;47.20;;;;;;5085945;28;42992;-80
2023/04/28 00:21:17;;;;;;;;;;;19.40;47.20;;;;;;5080236;28;45027;-79
2023/04/28 00:23:43;;;;;;;;;;;19.30;47.20;;;;;;5062305;28;44701;-79
2023/04/28 00:26:08;;;;;;;;;;;19.40;47.30;;;;;;5065652;28;43695;-80
2023/04/28 00:28:34;;;;;;;;;;;19.40;47.30;;;;;;5065325;28;42905;-79
2023/04/28 00:31:00;;;;;;;;;;;19.40;47.20;;;;;;5064586;28;42983;-80
2023/04/28 00:33:25;;;;;;;;;;;19.40;47.20;;;;;;5065281;28;42914;-79
2023/04/28 00:35:57;;;;;;;;;;;19.40;47.20;;;;;;5065113;28;43657;-80
2023/04/28 00:38:24;;;;;;;;;;;19.40;47.20;;;;;;5065344;28;42933;-80
2023/04/28 00:40:49;;;;;;;;;;;19.40;47.20;;;;;;5065196;28;42772;-79
2023/04/28 00:43:15;;;;;;;;;;;19.40;47.20;;;;;;5062422;28;42975;-83
2023/04/28 00:45:40;;;;;;;;;;;19.40;47.10;;;;;;5063021;28;43399;-79
2023/04/28 00:48:06;;;;;;;;;;;19.40;48.30;;;;;;5064512;28;42894;-79
2023/04/28 00:50:32;;;;;;;;;;;19.40;47.70;;;;;;5064936;28;43642;-79
2023/04/28 00:52:59;;;;;;;;;;;19.40;47.20;;;;;;5064679;28;42833;-80
2023/04/28 00:55:26;;;;;;;;;;;19.40;47.30;;;;;;5063713;28;44389;-79
2023/04/28 00:57:54;;;;;;;;;;;19.40;47.30;;;;;;5064802;28;43220;-77
2023/04/28 01:00:19;;;;;;;;;;;19.40;47.20;;;;;;5079156;28;43040;-78
2023/04/28 01:02:45;;;;;;;;;;;19.30;47.20;;;;;;5083336;27;43044;-78
2023/04/28 01:05:12;;;;;;;;;;;19.40;47.30;;;;;;5084428;27;43159;-77
2023/04/28 01:07:38;;;;;;;;;;;19.40;47.50;;;;;;5083877;27;42823;-77
2023/04/28 01:10:03;;;;;;;;;;;19.40;47.50;;;;;;5081339;28;42967;-77
2023/04/28 01:12:29;;;;;;;;;;;;;;;;;;5077424;28;42957;-78
2023/04/28 01:14:55;;;;;;;;;;;19.30;47.50;;;;;;5071462;28;43465;-77
2023/04/28 01:17:20;;;;;;;;;;;19.30;47.50;;;;;;5073310;28;43815;-77
2023/04/28 01:19:46;;;;;;;;;;;19.30;47.70;;;;;;5081520;27;43600;-79
2023/04/28 01:22:14;;;;;;;;;;;19.20;47.70;;;;;;5083976;28;42983;-76
2023/04/28 01:24:40;;;;;;;;;;;19.30;47.80;;;;;;5083223;28;43479;-76
2023/04/28 01:27:06;;;;;;;;;;;19.30;47.80;;;;;;5083849;28;43148;-78
2023/04/28 01:29:31;;;;;;;;;;;19.20;47.70;;;;;;5083743;28;44071;-77
2023/04/28 01:31:57;;;;;;;;;;;19.20;47.70;;;;;;5084146;28;43169;-77
2023/04/28 01:34:22;;;;;;;;;;;19.20;47.70;;;;;;5083734;28;43620;-76
2023/04/28 01:36:47;;;;;;;;;;;19.30;47.70;;;;;;5069019;28;43127;-78
2023/04/28 01:39:13;;;;;;;;;;;19.20;47.70;;;;;;5073005;28;44468;-77
2023/04/28 01:41:39;;;;;;;;;;;19.30;47.70;;;;;;5080627;28;42849;-77
2023/04/28 01:44:06;;;;;;;;;;;19.30;47.60;;;;;;5084241;28;43726;-77
2023/04/28 01:46:32;;;;;;;;;;;19.20;47.60;;;;;;5081588;27;43030;-77
2023/04/28 01:48:57;;;;;;;;;;;19.30;48.20;;;;;;5082470;28;42948;-77
2023/04/28 01:51:23;;;;;;;;;;;19.30;47.70;;;;;;5084690;28;42927;-76
2023/04/28 01:53:48;;;;;;;;;;;19.30;47.70;;;;;;5083654;28;42960;-77
2023/04/28 01:56:14;;;;;;;;;;;19.30;48.40;;;;;;5083385;27;43012;-76
2023/04/28 01:58:39;;;;;;;;;;;19.30;47.70;;;;;;5083872;27;43390;-76
2023/04/28 02:01:05;;;;;;;;;;;19.30;47.70;;;;;;5084083;28;42928;-78
2023/04/28 02:03:30;;;;;;;;;;;19.30;47.60;;;;;;5082534;28;43126;-77
2023/04/28 02:05:56;;;;;;;;;;;19.30;47.70;;;;;;5084231;28;42989;-77
2023/04/28 02:08:22;;;;;;;;;;;19.30;47.70;;;;;;5083722;27;43743;-77
2023/04/28 02:10:47;;;;;;;;;;;19.30;47.70;;;;;;5083348;28;42905;-77
2023/04/28 02:13:13;;;;;;;;;;;19.20;47.70;;;;;;5083611;28;43007;-77
2023/04/28 02:15:39;;;;;;;;;;;19.30;47.60;;;;;;5086054;27;42818;-77
2023/04/28 02:18:05;;;;;;;;;;;19.30;47.60;;;;;;5085183;28;43042;-77
2023/04/28 02:20:30;;;;;;;;;;;19.30;47.50;;;;;;5087256;28;42909;-76
2023/04/28 02:22:56;;;;;;;;;;;19.30;47.60;;;;;;5085407;28;43144;-77
2023/04/28 02:25:21;;;;;;;;;;;19.30;47.50;;;;;;5087044;28;42993;-77
2023/04/28 02:27:47;;;;;;;;;;;19.30;47.50;;;;;;5086920;28;43515;-77
2023/04/28 02:30:12;;;;;;;;;;;19.40;47.40;;;;;;5087477;28;42964;-76
2023/04/28 02:32:38;;;;;;;;;;;19.40;48.00;;;;;;5086656;28;43665;-77
2023/04/28 02:35:03;;;;;;;;;;;19.30;47.60;;;;;;5087407;28;42940;-76
2023/04/28 02:37:29;;;;;;;;;;;19.40;48.10;;;;;;5086955;28;43463;-78
2023/04/28 02:39:55;;;;;;;;;;;19.40;47.60;;;;;;5086249;27;42990;-77
2023/04/28 02:42:21;;;;;;;;;;;19.40;48.10;;;;;;5086582;27;43087;-77
2023/04/28 02:44:46;;;;;;;;;;;19.40;47.50;;;;;;5084170;28;43114;-78
2023/04/28 02:47:13;;;;;;;;;;;19.40;47.40;;;;;;5064773;28;63629;-77
2023/04/28 02:49:39;;;;;;;;;;;19.30;47.60;;;;;;5066503;28;43004;-77
2023/04/28 02:52:04;;;;;;;;;;;19.30;47.60;;;;;;5065824;28;43135;-77
2023/04/28 02:54:31;;;;;;;;;;;19.30;47.50;;;;;;5066471;28;42941;-77
2023/04/28 02:56:57;;;;;;;;;;;19.40;47.50;;;;;;5066046;28;43302;-77
2023/04/28 02:59:23;;;;;;;;;;;19.40;47.50;;;;;;5066260;28;42957;-77
2023/04/28 03:01:49;;;;;;;;;;;19.40;47.60;;;;;;5066119;28;43619;-78
2023/04/28 03:04:15;;;;;;;;;;;19.30;47.60;;;;;;5066488;28;42941;-77
2023/04/28 03:06:41;;;;;;;;;;;19.30;47.70;;;;;;5066297;28;42980;-78
2023/04/28 03:09:07;;;;;;;;;;;19.30;47.60;;;;;;5066129;28;42929;-77
2023/04/28 03:11:32;;;;;;;;;;;19.30;47.60;;;;;;5066179;28;43753;-79
2023/04/28 03:13:58;;;;;;;;;;;19.30;48.10;;;;;;5066195;28;42841;-78
2023/04/28 03:16:24;;;;;;;;;;;;;;;;;;5074641;28;43067;-78
2023/04/28 03:18:49;;;;;;;;;;;19.40;47.60;;;;;;5086689;28;42829;-78
2023/04/28 03:21:15;;;;;;;;;;;19.30;47.70;;;;;;5084177;27;42873;-78
2023/04/28 03:23:40;;;;;;;;;;;19.30;47.70;;;;;;5085903;28;42846;-79
2023/04/28 03:26:06;;;;;;;;;;;19.30;47.70;;;;;;5085741;27;44165;-78
2023/04/28 03:28:32;;;;;;;;;;;19.40;47.70;;;;;;5085091;27;42969;-77
2023/04/28 03:30:57;;;;;;;;;;;19.40;47.70;;;;;;5084739;28;43750;-78
2023/04/28 03:33:23;;;;;;;;;;;19.30;47.90;;;;;;5083939;28;42940;-75
2023/04/28 03:35:48;;;;;;;;;;;19.30;48.10;;;;;;5084884;27;43820;-76
2023/04/28 03:38:14;;;;;;;;;;;19.20;48.10;;;;;;5065157;28;43453;-76
2023/04/28 03:40:40;;;;;;;;;;;19.20;48.10;;;;;;5084846;27;43750;-75
2023/04/28 03:43:07;;;;;;;;;;;19.30;48.10;;;;;;5085700;27;42940;-75
2023/04/28 03:45:33;;;;;;;;;;;19.30;48.10;;;;;;5083716;28;42983;-75
2023/04/28 03:47:58;;;;;;;;;;;19.20;47.90;;;;;;5085853;28;42857;-75
2023/04/28 03:50:24;;;;;;;;;;;19.30;47.90;;;;;;5085010;28;43312;-76
2023/04/28 03:52:49;;;;;;;;;;;19.30;47.80;;;;;;5084652;28;42881;-76
2023/04/28 03:55:15;;;;;;;;;;;19.30;47.70;;;;;;5082318;28;43814;-76
2023/04/28 03:57:41;;;;;;;;;;;19.30;47.60;;;;;;5085634;27;43031;-75
2023/04/28 04:00:07;;;;;;;;;;;19.40;47.60;;;;;;5083979;27;42929;-78
2023/04/28 04:02:33;;;;;;;;;;;19.30;47.60;;;;;;5084585;28;43008;-76
2023/04/28 04:04:58;;;;;;;;;;;19.30;47.70;;;;;;5080833;28;43779;-76
2023/04/28 04:07:24;;;;;;;;;;;19.30;47.60;;;;;;5076119;28;43023;-76
2023/04/28 04:09:49;;;;;;;;;;;19.30;47.60;;;;;;5082353;28;42922;-75
2023/04/28 04:12:15;;;;;;;;;;;19.40;47.70;;;;;;5085448;28;43046;-76
2023/04/28 04:14:40;;;;;;;;;;;19.30;47.60;;;;;;5084797;28;43071;-76
2023/04/28 04:17:06;;;;;;;;;;;19.30;47.50;;;;;;5081427;28;43055;-76
2023/04/28 04:19:32;;;;;;;;;;;19.40;47.60;;;;;;5083683;27;43482;-75
2023/04/28 04:21:57;;;;;;;;;;;19.40;47.50;;;;;;5084229;27;42921;-76
2023/04/28 04:24:23;;;;;;;;;;;19.40;47.50;;;;;;5087509;27;42814;-75
2023/04/28 04:26:48;;;;;;;;;;;19.20;47.50;;;;;;5075415;27;43054;-75
2023/04/28 04:29:14;;;;;;;;;;;19.30;47.40;;;;;;5071437;28;43667;-75
2023/04/28 04:31:40;;;;;;;;;;;;;;;;;;5079002;28;42952;-76
2023/04/28 04:34:06;;;;;;;;;;;;;;;;;;5091903;27;43383;-75
2023/04/28 04:36:32;;;;;;;;;;;;;;;;;;5078909;27;42925;-75
2023/04/28 04:38:57;;;;;;;;;;;19.30;47.80;;;;;;5091386;27;43563;-75
2023/04/28 04:41:24;;;;;;;;;;;19.20;48.00;;;;;;5105680;27;42835;-74
2023/04/28 04:43:50;;;;;;;;;;;19.20;48.00;;;;;;5101310;27;43610;-75
2023/04/28 04:46:15;;;;;;;;;;;19.20;48.00;;;;;;5080957;28;43204;-76
2023/04/28 04:48:42;;;;;;;;;;;19.10;48.00;;;;;;5080457;28;43065;-75
2023/04/28 04:51:07;;;;;;;;;;;19.20;48.10;;;;;;5084325;27;43029;-74
2023/04/28 04:53:33;;;;;;;;;;;19.20;47.90;;;;;;5085048;27;44079;-75
2023/04/28 04:55:58;;;;;;;;;;;19.20;48.50;;;;;;5081286;28;43127;-75
2023/04/28 04:58:24;;;;;;;;;;;19.20;47.70;;;;;;5084602;27;42894;-75
2023/04/28 05:00:50;;;;;;;;;;;19.30;47.60;;;;;;5082904;28;43005;-75
2023/04/28 05:03:15;;;;;;;;;;;19.30;47.60;;;;;;5083646;28;43692;-75
2023/04/28 05:05:41;;;;;;;;;;;19.30;47.60;;;;;;5083169;27;43159;-75
2023/04/28 05:08:07;;;;;;;;;;;19.30;47.70;;;;;;5084170;27;43276;-75
2023/04/28 05:10:32;;;;;;;;;;;19.30;47.60;;;;;;5080206;28;43016;-79
2023/04/28 05:12:58;;;;;;;;;;;19.30;47.60;;;;;;5081258;28;42976;-78
2023/04/28 05:15:23;;;;;;;;;;;19.40;47.90;;;;;;5083710;27;42944;-80
2023/04/28 05:17:49;;;;;;;;;;;19.30;47.90;;;;;;5084692;27;43842;-82
2023/04/28 05:20:15;;;;;;;;;;;19.30;47.80;;;;;;5081040;28;44145;-84
2023/04/28 05:22:40;;;;;;;;;;;19.40;47.90;;;;;;5077825;27;42876;-80
2023/04/28 05:25:06;;;;;;;;;;;19.30;48.50;;;;;;5084039;27;43003;-79
2023/04/28 05:27:32;;;;;;;;;;;;;;;;;;5082068;27;44260;-79
2023/04/28 05:29:58;;;;;;;;;;;19.00;49.10;;;;;;5080928;28;43277;-77
2023/04/28 05:32:24;;;;;;;;;;;18.90;49.30;;;;;;5076254;27;43269;-79
2023/04/28 05:34:50;;;;;;;;;;;18.90;49.40;;;;;;5082997;28;42988;-80
2023/04/28 05:37:15;;;;;;;;;;;18.90;49.30;;;;;;5081258;28;43524;-78
2023/04/28 05:39:41;;;;;;;;;;;19.00;49.10;;;;;;5074648;27;43068;-78
2023/04/28 05:42:06;;;;;;;;;;;19.00;49.00;;;;;;5089738;27;43415;-79
2023/04/28 05:44:32;;;;;;;;;;;19.10;49.10;;;;;;5094047;27;42915;-79
2023/04/28 05:46:57;;;;;;;;;;;19.00;49.00;;;;;;5083826;27;43124;-80
2023/04/28 05:49:23;;;;;;;;;;;19.10;49.00;;;;;;5080080;27;43030;-79
2023/04/28 05:51:49;;;;;;;;;;;;;;;;;;5086063;28;43494;-80
2023/04/28 05:54:14;;;;;;;;;;;19.10;49.30;;;;;;5087575;27;42907;-80
2023/04/28 05:56:40;;;;;;;;;;;19.10;49.30;;;;;;5086975;27;43460;-79
2023/04/28 05:59:05;;;;;;;;;;;19.10;49.40;;;;;;5087471;28;42953;-79
2023/04/28 06:01:31;;;;;;;;;;;19.10;49.40;;;;;;5085581;27;43722;-79
2023/04/28 06:03:57;;;;;;;;;;;19.10;49.20;;;;;;5086472;28;43027;-79
2023/04/28 06:06:23;;;;;;;;;;;19.10;49.10;;;;;;5086375;28;43305;-78
2023/04/28 06:08:49;;;;;;;;;;;19.20;49.00;;;;;;5086187;27;42875;-78
2023/04/28 06:11:14;;;;;;;;;;;19.20;49.30;;;;;;5087323;28;43013;-79
2023/04/28 06:13:40;;;;;;;;;;;19.20;49.30;;;;;;5086720;27;42858;-79
2023/04/28 06:16:06;;;;;;;;;;;19.10;49.30;;;;;;5086759;28;42850;-79
2023/04/28 06:18:32;;;;;;;;;;;19.10;49.30;;;;;;5087305;27;43004;-79
2023/04/28 06:20:57;;;;;;;;;;;19.10;49.40;;;;;;5087866;28;43091;-78
2023/04/28 06:23:23;;;;;;;;;;;19.10;49.30;;;;;;5088137;28;43045;-79
2023/04/28 06:25:48;;;;;;;;;;;19.10;49.20;;;;;;5087226;28;43440;-78
2023/04/28 06:28:14;;;;;;;;;;;19.20;49.30;;;;;;5087415;27;42956;-78
2023/04/28 06:30:40;;;;;;;;;;;19.10;49.30;;;;;;5087613;28;42933;-79
2023/04/28 06:33:05;;;;;;;;;;;19.20;49.40;;;;;;5087227;27;42919;-79
2023/04/28 06:35:34;;;;;;;;;;;19.10;49.30;;;;;;5087326;27;43863;-79
2023/04/28 06:38:01;;;;;;;;;;;19.10;49.80;;;;;;5087526;28;43248;-79
2023/04/28 06:40:26;;;;;;;;;;;19.20;49.30;;;;;;5087497;27;43785;-79
2023/04/28 06:42:52;;;;;;;;;;;19.10;49.10;;;;;;5087408;28;42902;-79
2023/04/28 06:45:17;;;;;;;;;;;19.20;49.70;;;;;;5087704;27;42853;-79
2023/04/28 06:47:43;;;;;;;;;;;19.20;48.90;;;;;;5087693;28;42852;-79
2023/04/28 06:50:09;;;;;;;;;;;19.20;48.80;;;;;;5087620;28;43499;-79
2023/04/28 06:52:34;;;;;;;;;;;19.20;48.80;;;;;;5087262;28;42870;-79
2023/04/28 06:55:00;;;;;;;;;;;19.20;48.80;;;;;;5087179;27;43018;-79
2023/04/28 06:57:25;;;;;;;;;;;19.20;48.90;;;;;;5086170;28;43605;-79
2023/04/28 06:59:51;;;;;;;;;;;19.20;48.90;;;;;;5087643;28;42806;-79
2023/04/28 07:02:16;;;;;;;;;;;19.20;49.00;;;;;;5086910;27;42959;-79
2023/04/28 07:04:42;;;;;;;;;;;19.20;49.00;;;;;;5087252;28;43537;-79
2023/04/28 07:07:08;;;;;;;;;;;19.10;48.90;;;;;;5087384;28;42955;-79
2023/04/28 07:09:34;;;;;;;;;;;19.20;48.90;;;;;;5087324;27;43486;-78
2023/04/28 07:12:00;;;;;;;;;;;19.20;48.90;;;;;;5087372;27;42935;-79
2023/04/28 07:14:25;;;;;;;;;;;19.20;48.80;;;;;;5085337;28;45656;-78
2023/04/28 07:16:51;;;;;;;;;;;19.20;48.80;;;;;;5087157;28;42957;-78
2023/04/28 07:19:16;;;;;;;;;;;19.20;48.70;;;;;;5086922;28;42957;-79
2023/04/28 07:21:42;;;;;;;;;;;19.20;48.60;;;;;;5086523;28;42865;-78
2023/04/28 07:24:07;;;;;;;;;;;19.20;48.60;;;;;;5087356;27;43557;-78
2023/04/28 07:26:33;;;;;;;;;;;19.20;48.40;;;;;;5086879;28;42985;-79
2023/04/28 07:28:58;;;;;;;;;;;19.20;48.40;;;;;;5086277;27;43509;-79
2023/04/28 07:31:24;;;;;;;;;;;19.20;48.40;;;;;;5086607;28;43063;-79
2023/04/28 07:33:50;;;;;;;;;;;19.20;48.40;;;;;;5086658;27;43465;-79
2023/04/28 07:36:16;;;;;;;;;;;19.30;48.40;;;;;;5085239;28;42785;-79
2023/04/28 07:38:41;;;;;;;;;;;19.20;48.20;;;;;;5086266;28;43431;-79
2023/04/28 07:41:07;;;;;;;;;;;19.20;48.20;;;;;;5086960;28;42989;-78
2023/04/28 07:43:32;;;;;;;;;;;19.10;48.10;;;;;;5086601;28;42959;-79
2023/04/28 07:45:58;;;;;;;;;;;19.20;48.70;;;;;;5086478;28;42996;-79
2023/04/28 07:48:23;;;;;;;;;;;19.20;48.70;;;;;;5086761;28;43372;-79
2023/04/28 07:50:49;;;;;;;;;;;19.20;48.10;;;;;;5086492;28;42865;-79
2023/04/28 07:53:14;;;;;;;;;;;19.20;48.10;;;;;;5086231;28;42973;-79
2023/04/28 07:55:44;;;;;;;;;;;;;;;;;;5086423;27;43162;-78
2023/04/28 07:58:10;;;;;;;;;;;19.20;48.10;;;;;;5086549;27;43442;-80
2023/04/28 08:00:36;;;;;;;;;;;19.20;48.00;;;;;;5084671;28;42997;-79
2023/04/28 08:03:02;;;;;;;;;;;19.30;48.50;;;;;;5085777;27;43528;-79
2023/04/28 08:05:27;;;;;;;;;;;19.30;48.10;;;;;;5086080;27;42972;-79
2023/04/28 08:07:53;;;;;;;;;;;19.30;48.10;;;;;;5086072;28;42800;-78
2023/04/28 08:10:19;;;;;;;;;;;19.20;48.00;;;;;;5085576;27;42866;-79
2023/04/28 08:12:44;;;;;;;;;;;19.20;48.00;;;;;;5084742;27;44485;-79
2023/04/28 08:15:10;;;;;;;;;;;19.20;47.90;;;;;;5086106;28;42842;-79
2023/04/28 08:17:36;;;;;;;;;;;19.20;47.90;;;;;;5085549;27;42928;-79
2023/04/28 08:20:02;;;;;;;;;;;19.20;48.00;;;;;;5086295;27;43020;-78
2023/04/28 08:22:27;;;;;;;;;;;19.20;48.50;;;;;;5085358;27;43728;-81
2023/04/28 08:24:53;;;;;;;;;;;19.20;48.50;;;;;;5085794;28;43028;-79
2023/04/28 08:27:18;;;;;;;;;;;19.20;48.00;;;;;;5085646;28;43951;-78
2023/04/28 08:29:44;;;;;;;;;;;19.20;48.00;;;;;;5085992;28;42920;-79
2023/04/28 08:32:09;;;;;;;;;;;19.30;47.90;;;;;;5086042;28;43801;-78
2023/04/28 08:34:35;;;;;;;;;;;19.30;48.50;;;;;;5085435;28;42922;-79
2023/04/28 08:37:00;;;;;;;;;;;19.20;47.90;;;;;;5085632;28;43438;-78
2023/04/28 08:39:26;;;;;;;;;;;19.20;47.90;;;;;;5086265;28;43168;-79
2023/04/28 08:41:52;;;;;;;;;;;19.20;47.90;;;;;;5085534;27;43356;-79
2023/04/28 08:44:18;;;;;;;;;;;19.20;48.50;;;;;;5085304;27;43032;-79
2023/04/28 08:46:44;;;;;;;;;;;19.20;47.80;;;;;;5085472;27;44007;-78
2023/04/28 08:49:20;;;;;;;;;;;19.20;47.90;;;;;;5085895;28;42795;-79
2023/04/28 08:51:51;;;;;;;;;;;19.20;48.00;;;;;;5085819;27;42777;-79
2023/04/28 08:54:17;;;;;;;;;;;19.20;48.00;;;;;;5085528;27;43060;-79
2023/04/28 08:56:44;;;;;;;;;;;19.20;48.00;;;;;;5085413;27;43477;-79
2023/04/28 08:59:10;;;;;;;;;;;19.20;48.00;;;;;;5085258;27;42994;-79
2023/04/28 09:01:35;;;;;;;;;;;19.20;48.60;;;;;;5084526;28;43357;-78
2023/04/28 09:04:01;;;;;;;;;;;19.20;48.00;;;;;;5085144;28;42878;-79
2023/04/28 09:06:36;;;;;;;;;;;19.20;48.00;;;;;;5085630;27;42783;-79
2023/04/28 09:09:17;;;;;;;;;;;19.20;47.90;;;;;;5085632;27;43078;-78
2023/04/28 09:11:50;;;;;;;;;;;19.20;48.00;;;;;;5084617;27;42907;-78
2023/04/28 09:14:15;;;;;;;;;;;19.20;47.90;;;;;;5085168;27;42841;-79
2023/04/28 09:16:41;;;;;;;;;;;19.20;48.00;;;;;;5083867;28;42871;-79
2023/04/28 09:19:06;;;;;;;;;;;19.30;48.10;;;;;;5085250;28;42975;-78
2023/04/28 09:21:32;;;;;;;;;;;19.20;48.10;;;;;;5082863;28;45149;-79
2023/04/28 09:23:57;;;;;;;;;;;19.20;48.00;;;;;;5085737;27;42776;-79
2023/04/28 09:26:23;;;;;;;;;;;19.10;48.00;;;;;;5088979;28;42787;-78
2023/04/28 09:28:49;;;;;;;;;;;19.20;47.90;;;;;;5088876;28;43008;-79
2023/04/28 09:31:24;;;;;;;;;;;19.20;47.90;;;;;;5088596;28;42861;-79
2023/04/28 09:33:57;;;;;;;;;;;19.30;48.00;;;;;;5088749;27;42803;-78
2023/04/28 09:36:28;;;;;;;;;;;19.20;47.90;;;;;;5088841;28;43452;-78
2023/04/28 09:38:56;;;;;;;;;;;19.20;48.40;;;;;;5088716;27;42913;-79
2023/04/28 09:41:22;;;;;;;;;;;19.20;48.50;;;;;;5088215;27;42963;-78
2023/04/28 09:43:49;;;;;;;;;;;19.20;47.90;;;;;;5086038;28;42914;-79
2023/04/28 09:46:26;;;;;;;;;;;19.20;47.90;;;;;;5088353;27;43861;-79
2023/04/28 09:48:59;;;;;;;;;;;19.20;48.30;;;;;;5088300;27;43023;-79
2023/04/28 09:51:24;;;;;;;;;;;19.20;47.70;;;;;;5088094;27;43113;-78
2023/04/28 09:53:51;;;;;;;;;;;19.20;47.70;;;;;;5088204;28;42981;-79
2023/04/28 09:56:19;;;;;;;;;;;19.30;47.70;;;;;;5088293;27;42907;-79
2023/04/28 09:58:46;;;;;;;;;;;19.30;47.40;;;;;;5088582;27;42949;-78
2023/04/28 10:01:12;;;;;;;;;;;19.30;47.20;;;;;;5088252;27;43699;-79
2023/04/28 10:03:39;;;;;;;;;;;19.30;47.70;;;;;;5088172;27;42717;-78
2023/04/28 10:06:04;;;;;;;;;;;19.30;47.10;;;;;;5086837;28;44454;-79
2023/04/28 10:08:30;;;;;;;;;;;19.30;47.40;;;;;;5088389;27;42835;-79
2023/04/28 10:10:56;;;;;;;;;;;19.30;47.40;;;;;;5088495;28;43138;-79
2023/04/28 10:13:22;;;;;;;;;;;19.20;47.90;;;;;;5088088;27;42757;-78
2023/04/28 10:15:48;;;;;;;;;;;19.30;47.90;;;;;;5087736;27;42900;-79
2023/04/28 10:18:14;;;;;;;;;;;19.30;47.90;;;;;;5087921;27;43523;-79
2023/04/28 10:20:41;;;;;;;;;;;19.20;47.40;;;;;;5088147;27;42869;-79
2023/04/28 10:23:23;;;;;;;;;;;19.30;48.00;;;;;;5088024;27;43024;-79
2023/04/28 10:25:53;;;;;;;;;;;19.30;47.80;;;;;;5087875;27;42851;-78
2023/04/28 10:28:19;;;;;;;;;;;19.30;47.90;;;;;;5087798;27;42787;-79
2023/04/28 10:31:05;;;;;;;;;;;19.30;47.40;;;;;;5086163;28;44372;-78
2023/04/28 10:33:31;;;;;;;;;;;19.30;47.40;;;;;;5087317;27;43041;-78
2023/04/28 10:35:56;;;;;;;;;;;19.30;47.40;;;;;;5086564;27;44406;-78
2023/04/28 10:38:22;;;;;;;;;;;19.30;48.00;;;;;;5087437;28;42936;-79
2023/04/28 10:40:48;;;;;;;;;;;;;;;;;;5088073;28;42842;-78
2023/04/28 10:43:30;;;;;;;;;;;19.30;47.20;;;;;;5087825;28;42916;-79
2023/04/28 10:45:56;;;;;;;;;;;19.30;47.20;;;;;;5087477;28;42900;-79
2023/04/28 10:48:22;;;;;;;;;;;19.20;47.30;;;;;;5087544;27;42932;-79
2023/04/28 10:51:03;;;;;;;;;;;19.20;47.30;;;;;;5087389;27;43744;-79
2023/04/28 10:53:44;;;;;;;;;;;19.30;47.30;;;;;;5087436;27;42996;-78
2023/04/28 10:56:13;;;;;;;;;;;19.30;47.70;;;;;;5086868;28;43598;-79
2023/04/28 10:58:42;;;;;;;;;;;19.30;47.20;;;;;;5086649;27;42830;-78
2023/04/28 11:01:20;;;;;;;;;;;19.30;47.10;;;;;;5087484;28;43574;-79
2023/04/28 11:04:06;;;;;;;;;;;19.30;47.00;;;;;;5085293;28;43092;-78
2023/04/28 11:06:36;;;;;;;;;;;19.30;47.00;;;;;;5087058;27;43653;-78
2023/04/28 11:09:13;;;;;;;;;;;19.30;47.00;;;;;;5087167;27;43079;-79
2023/04/28 11:11:39;;;;;;;;;;;19.30;47.00;;;;;;5087251;28;44140;-79
2023/04/28 11:14:17;;;;;;;;;;;19.30;47.50;;;;;;5087125;28;42948;-86
2023/04/28 11:16:49;;;;;;;;;;;19.30;47.00;;;;;;5087152;28;42940;-79
2023/04/28 11:19:18;;;;;;;;;;;19.30;47.00;;;;;;5087450;27;43033;-78
2023/04/28 11:21:45;;;;;;;;;;;19.30;46.90;;;;;;5087049;27;43764;-79
2023/04/28 11:24:11;;;;;;;;;;;19.10;46.60;;;;;;5087156;28;42920;-79
2023/04/28 11:26:37;;;;;;;;;;;19.30;46.50;;;;;;5086871;27;42825;-78
2023/04/28 11:29:03;;;;;;;;;;;19.30;46.50;;;;;;5086733;27;42938;-78
2023/04/28 11:31:28;;;;;;;;;;;19.30;46.40;;;;;;5086200;27;42878;-79
2023/04/28 11:33:54;;;;;;;;;;;;;;;;;;5086651;28;42971;-85
2023/04/28 11:36:23;;;;;;;;;;;19.30;46.30;;;;;;5087624;28;42988;-87
2023/04/28 11:38:49;;;;;;;;;;;19.30;46.30;;;;;;5087258;28;43179;-80
2023/04/28 11:41:15;;;;;;;;;;;19.30;46.30;;;;;;5086786;27;42854;-78
2023/04/28 11:43:40;;;;;;;;;;;19.30;46.00;;;;;;5087028;28;42949;-79
2023/04/28 11:46:06;;;;;;;;;;;19.30;45.50;;;;;;5086235;28;42902;-79
2023/04/28 11:48:32;;;;;;;;;;;19.30;44.90;;;;;;5085260;27;42843;-79
2023/04/28 11:50:57;;;;;;;;;;;19.30;44.80;;;;;;5086615;28;44083;-79
2023/04/28 11:53:42;;;;;;;;;;;19.30;45.20;;;;;;5086761;28;42845;-79
2023/04/28 11:56:08;;;;;;;;;;;19.40;45.20;;;;;;5086278;28;43052;-79
2023/04/28 11:58:33;;;;;;;;;;;19.30;45.30;;;;;;5086126;27;43142;-78
2023/04/28 12:01:06;;;;;;;;;;;19.30;45.80;;;;;;5086487;27;43009;-78
2023/04/28 12:03:31;;;;;;;;;;;19.40;45.20;;;;;;5086466;28;43022;-78
2023/04/28 12:05:57;;;;;;;;;;;19.30;45.40;;;;;;5086067;28;43603;-78
2023/04/28 12:08:29;;;;;;;;;;;19.30;45.40;;;;;;5084857;28;42877;-79
2023/04/28 12:11:11;;;;;;;;;;;19.40;45.00;;;;;;5086490;28;43604;-78
2023/04/28 12:13:37;;;;;;;;;;;19.30;44.70;;;;;;5086352;27;43084;-79
2023/04/28 12:16:05;;;;;;;;;;;19.30;44.90;;;;;;5086293;27;42890;-79
2023/04/28 12:18:31;;;;;;;;;;;19.40;44.90;;;;;;5086279;27;42870;-78
2023/04/28 12:20:57;;;;;;;;;;;19.30;44.70;;;;;;5084312;28;44454;-79
2023/04/28 12:23:32;;;;;;;;;;;19.30;44.60;;;;;;5085389;27;43015;-78
2023/04/28 12:25:57;;;;;;;;;;;19.30;44.70;;;;;;5086247;27;42988;-78
2023/04/28 12:28:24;;;;;;;;;;;;;;;;;;5085862;27;42919;-80
2023/04/28 12:31:01;;;;;;;;;;;19.40;44.40;;;;;;5085860;27;42917;-79
2023/04/28 12:33:30;;;;;;;;;;;19.30;44.70;;;;;;5085758;27;42876;-79
2023/04/28 12:35:56;;;;;;;;;;;19.30;44.70;;;;;;5085743;28;43715;-78
2023/04/28 12:38:22;;;;;;;;;;;19.20;44.50;;;;;;5085725;27;42931;-78
2023/04/28 12:40:48;;;;;;;;;;;19.30;45.10;;;;;;5085438;27;43074;-79
2023/04/28 12:43:14;;;;;;;;;;;19.30;44.50;;;;;;5086028;28;42888;-79
2023/04/28 12:45:40;;;;;;;;;;;19.30;44.30;;;;;;5085585;27;43006;-78
2023/04/28 12:48:06;;;;;;;;;;;19.40;44.30;;;;;;5085730;27;42917;-79
2023/04/28 12:50:32;;;;;;;;;;;19.30;44.20;;;;;;5084010;28;44752;-77
2023/04/28 12:52:57;;;;;;;;;;;19.40;44.40;;;;;;5084919;27;43062;-79
2023/04/28 12:55:23;;;;;;;;;;;19.30;44.20;;;;;;5085212;27;43443;-78
2023/04/28 12:57:48;;;;;;;;;;;19.40;45.00;;;;;;5085941;27;43342;-78
2023/04/28 13:00:15;;;;;;;;;;;19.30;44.30;;;;;;5083527;27;44817;-79
2023/04/28 13:02:40;;;;;;;;;;;19.30;44.70;;;;;;5084915;28;42948;-79
2023/04/28 13:05:06;;;;;;;;;;;19.40;44.20;;;;;;5085206;27;42937;-79
2023/04/28 13:07:34;;;;;;;;;;;19.40;44.30;;;;;;5085720;27;42839;-79
2023/04/28 13:10:00;;;;;;;;;;;19.40;44.10;;;;;;5085123;27;42857;-79
2023/04/28 13:12:25;;;;;;;;;;;19.40;43.90;;;;;;5085073;28;42978;-80
2023/04/28 13:14:51;;;;;;;;;;;19.40;43.80;;;;;;5085259;28;42863;-79
2023/04/28 13:17:16;;;;;;;;;;;19.40;44.00;;;;;;5085671;28;42987;-80
2023/04/28 13:19:42;;;;;;;;;;;19.40;43.80;;;;;;5085208;28;43533;-79
2023/04/28 13:22:08;;;;;;;;;;;19.30;44.50;;;;;;5085533;27;42845;-78
2023/04/28 13:24:34;;;;;;;;;;;19.30;43.80;;;;;;5084848;27;42980;-84
2023/04/28 13:27:03;;;;;;;;;;;19.30;44.40;;;;;;5085319;27;43009;-79
2023/04/28 13:29:29;;;;;;;;;;;19.40;43.00;;;;;;5085206;27;42699;-80
2023/04/28 13:31:54;;;;;;;;;;;19.30;43.20;;;;;;5085240;28;42997;-79
2023/04/28 13:34:20;;;;;;;;;;;19.30;43.80;;;;;;5085079;27;43011;-79
2023/04/28 13:36:47;;;;;;;;;;;19.40;44.00;;;;;;5085184;28;42956;-78
2023/04/28 13:39:13;;;;;;;;;;;19.40;43.60;;;;;;5084614;27;43382;-79
2023/04/28 13:41:39;;;;;;;;;;;19.40;43.70;;;;;;5084593;27;42956;-78
2023/04/28 13:44:04;;;;;;;;;;;19.40;43.70;;;;;;5084277;28;43530;-79
2023/04/28 13:46:30;;;;;;;;;;;19.30;44.20;;;;;;5084803;28;43434;-85
2023/04/28 13:48:56;;;;;;;;;;;19.40;44.00;;;;;;5084629;28;43495;-79
2023/04/28 13:51:22;;;;;;;;;;;19.30;43.00;;;;;;5084732;27;43004;-79
2023/04/28 13:53:48;;;;;;;;;;;19.30;42.90;;;;;;5084902;27;43883;-79
2023/04/28 13:56:13;;;;;;;;;;;19.30;43.80;;;;;;5084696;28;43044;-78
2023/04/28 13:58:39;;;;;;;;;;;19.30;43.40;;;;;;5084513;28;42936;-78
2023/04/28 14:01:05;;;;;;;;;;;19.30;43.00;;;;;;5084757;28;42877;-78
2023/04/28 14:03:30;;;;;;;;;;;19.40;43.00;;;;;;5084211;28;42897;-79
2023/04/28 14:05:57;;;;;;;;;;;19.40;42.90;;;;;;5084890;27;43219;-78
2023/04/28 14:08:23;;;;;;;;;;;19.30;43.00;;;;;;5083253;28;44354;-82
2023/04/28 14:10:49;;;;;;;;;;;19.30;43.50;;;;;;5085213;27;42956;-82
2023/04/28 14:13:15;;;;;;;;;;;19.40;42.90;;;;;;5088046;27;42956;-80
2023/04/28 14:15:40;;;;;;;;;;;19.40;43.50;;;;;;5088103;27;42892;-81
2023/04/28 14:18:06;;;;;;;;;;;19.40;43.10;;;;;;5087822;27;43883;-79